createdAt,value
2022-10-10T00:00:58.919Z,98527.25
2022-10-10T00:04:00.337Z,98520.31
2022-10-10T00:07:01.653Z,98523.75
2022-10-10T00:10:03.034Z,98521.16
2022-10-10T00:13:04.752Z,98522.91
2022-10-10T00:16:06.348Z,98515.97
2022-10-10T00:19:07.765Z,98518.56
2022-10-10T00:22:09.091Z,98512.47
2022-10-10T00:25:10.645Z,98517.69
2022-10-10T00:28:12.678Z,98512.47
2022-10-10T00:31:14.083Z,98513.34
2022-10-10T00:34:15.476Z,98515.94
2022-10-10T00:37:16.832Z,98517.66
2022-10-10T00:40:18.214Z,98513.31
2022-10-10T00:43:19.751Z,98516.78
2022-10-10T00:46:21.108Z,98512.44
2022-10-10T00:49:23.256Z,98511.56
2022-10-10T00:52:24.615Z,98504.63
2022-10-10T00:55:26.028Z,98509.81
2022-10-10T00:58:27.440Z,98501.13
2022-10-10T01:01:28.810Z,98500.22
2022-10-10T01:04:35.065Z,98499.34
2022-10-10T01:07:36.518Z,98508.03
2022-10-10T01:10:50.535Z,98498.53
2022-10-10T01:13:54.910Z,98504.59
2022-10-10T01:17:04.324Z,98496.81
2022-10-10T01:20:24.397Z,98492.50
2022-10-10T01:23:28.767Z,98498.53
2022-10-10T01:26:48.433Z,98498.53
2022-10-10T01:29:53.854Z,98494.19
2022-10-10T01:33:01.573Z,98495.88
2022-10-10T01:36:15.220Z,98484.63
2022-10-10T01:39:22.500Z,98488.13
2022-10-10T01:42:43.793Z,98484.63
2022-10-10T01:45:46.006Z,98480.31
2022-10-10T01:48:48.211Z,98476.88
2022-10-10T01:52:01.916Z,98482.06
2022-10-10T01:55:06.337Z,98484.72
2022-10-10T01:58:26.479Z,98473.41
2022-10-10T02:01:36.102Z,98476.03
2022-10-10T02:04:41.793Z,98474.31
2022-10-10T02:07:48.920Z,98470.81
2022-10-10T02:10:52.339Z,98468.22
2022-10-10T02:14:01.484Z,98480.34
2022-10-10T02:17:02.863Z,98475.13
2022-10-10T02:20:04.376Z,98468.16
2022-10-10T02:23:06.256Z,98465.56
2022-10-10T02:26:07.663Z,98468.16
2022-10-10T02:29:24.420Z,98469.03
2022-10-10T02:32:28.583Z,98462.06
2022-10-10T02:35:34.307Z,98462.06
2022-10-10T02:38:35.664Z,98460.34
2022-10-10T02:41:37.051Z,98459.44
2022-10-10T02:44:38.418Z,98465.50
2022-10-10T02:47:39.800Z,98467.25
2022-10-10T02:50:41.203Z,98465.50
2022-10-10T02:53:42.575Z,98462.94
2022-10-10T02:56:43.925Z,98462.91
2022-10-10T02:59:45.311Z,98467.25
2022-10-10T03:02:46.808Z,98463.78
2022-10-10T03:05:48.937Z,98458.59
2022-10-10T03:08:50.392Z,98468.13
2022-10-10T03:11:51.758Z,98469.88
2022-10-10T03:14:53.140Z,98463.81
2022-10-10T03:17:54.480Z,98468.19
2022-10-10T03:20:58.790Z,98469.94
2022-10-10T03:24:00.173Z,98460.38
2022-10-10T03:27:01.542Z,98456.91
2022-10-10T03:30:03.582Z,98455.19
2022-10-10T03:33:05.205Z,98456.06
2022-10-10T03:36:06.738Z,98465.66
2022-10-10T03:39:09.375Z,98457.78
2022-10-10T03:42:10.808Z,98457.81
2022-10-10T03:45:12.143Z,98459.56
2022-10-10T03:48:13.540Z,98465.63
2022-10-10T03:51:14.939Z,98456.09
2022-10-10T03:54:16.334Z,98445.72
2022-10-10T03:57:17.765Z,98454.38
2022-10-10T04:00:19.195Z,98450.03
2022-10-10T04:03:20.576Z,98456.97
2022-10-10T04:06:21.951Z,98452.66
2022-10-10T04:09:23.325Z,98445.72
2022-10-10T04:12:24.743Z,98450.91
2022-10-10T04:15:26.139Z,98450.06
2022-10-10T04:18:27.531Z,98450.06
2022-10-10T04:21:28.895Z,98459.63
2022-10-10T04:24:30.276Z,98451.81
2022-10-10T04:27:31.646Z,98450.06
2022-10-10T04:30:33.836Z,98447.47
2022-10-10T04:33:35.250Z,98440.50
2022-10-10T04:36:36.943Z,98450.06
2022-10-10T04:39:38.498Z,98460.47
2022-10-10T04:42:39.880Z,98460.47
2022-10-10T04:45:41.298Z,98453.56
2022-10-10T04:48:42.719Z,98456.13
2022-10-10T04:51:44.162Z,98443.13
2022-10-10T04:54:45.611Z,98445.72
2022-10-10T04:57:47.193Z,98448.34
2022-10-10T05:00:52.627Z,98450.94
2022-10-10T05:03:54.045Z,98453.53
2022-10-10T05:06:55.426Z,98452.69
2022-10-10T05:09:56.781Z,98446.59
2022-10-10T05:12:58.247Z,98452.69
2022-10-10T05:16:00.822Z,98459.63
2022-10-10T05:19:02.294Z,98454.44
2022-10-10T05:22:03.666Z,98452.69
2022-10-10T05:25:05.240Z,98456.16
2022-10-10T05:28:06.710Z,98454.44
2022-10-10T05:31:08.145Z,98453.56
2022-10-10T05:34:12.254Z,98451.81
2022-10-10T05:37:13.714Z,98460.53
2022-10-10T05:40:15.161Z,98457.91
2022-10-10T05:43:16.608Z,98454.44
2022-10-10T05:46:20.251Z,98461.38
2022-10-10T05:49:21.728Z,98453.56
2022-10-10T05:52:23.161Z,98457.91
2022-10-10T05:55:24.603Z,98455.31
2022-10-10T05:58:26.073Z,98461.38
2022-10-10T06:01:27.693Z,98466.59
2022-10-10T06:04:29.034Z,98467.47
2022-10-10T06:07:45.833Z,98466.56
2022-10-10T06:10:51.781Z,98463.13
2022-10-10T06:13:57.132Z,98463.13
2022-10-10T06:16:58.508Z,98462.22
2022-10-10T06:19:59.878Z,98468.28
2022-10-10T06:23:02.018Z,98471.78
2022-10-10T06:26:04.313Z,98468.31
2022-10-10T06:29:05.695Z,98471.75
2022-10-10T06:32:07.071Z,98472.66
2022-10-10T06:35:08.495Z,98474.38
2022-10-10T06:38:10.023Z,98476.97
2022-10-10T06:41:11.367Z,98485.69
2022-10-10T06:44:12.733Z,98477.84
2022-10-10T06:47:14.073Z,98483.06
2022-10-10T06:50:15.593Z,98490.88
2022-10-10T06:53:17.136Z,98492.63
2022-10-10T06:56:27.366Z,98501.28
2022-10-10T06:59:29.108Z,98500.44
2022-10-10T07:02:30.494Z,98506.53
2022-10-10T07:05:31.934Z,98512.63
2022-10-10T07:08:33.321Z,98503.06
2022-10-10T07:11:34.659Z,98501.34
2022-10-10T07:14:36.073Z,98510.00
2022-10-10T07:17:37.788Z,98503.94
2022-10-10T07:20:39.224Z,98514.34
2022-10-10T07:23:41.122Z,98515.22
2022-10-10T07:26:42.522Z,98522.16
2022-10-10T07:29:43.995Z,98528.22
2022-10-10T07:32:45.624Z,98527.34
2022-10-10T07:35:52.210Z,98526.47
2022-10-10T07:38:54.709Z,98528.19
2022-10-10T07:41:56.083Z,98524.69
2022-10-10T07:44:57.448Z,98518.53
2022-10-10T07:47:58.826Z,98529.81
2022-10-10T07:51:00.360Z,98528.91
2022-10-10T07:54:01.843Z,98525.41
2022-10-10T07:57:03.252Z,98517.50
2022-10-10T08:00:05.404Z,98519.19
2022-10-10T08:03:11.676Z,98522.56
2022-10-10T08:06:14.011Z,98515.50
2022-10-10T08:09:15.468Z,98527.63
2022-10-10T08:12:16.849Z,98524.00
2022-10-10T08:15:18.296Z,98518.63
2022-10-10T08:18:19.702Z,98524.53
2022-10-10T08:21:21.116Z,98519.88
2022-10-10T08:24:22.560Z,98523.94
2022-10-10T08:27:24.056Z,98521.47
2022-10-10T08:30:25.537Z,98525.22
2022-10-10T08:33:27.285Z,98565.59
2022-10-10T08:36:28.724Z,98611.50
2022-10-10T08:39:30.152Z,98625.31
2022-10-10T08:42:33.212Z,98631.16
2022-10-10T08:45:34.686Z,98630.78
2022-10-10T08:48:36.088Z,98634.56
2022-10-10T08:51:37.445Z,98634.47
2022-10-10T08:54:38.848Z,98636.34
2022-10-10T08:57:50.637Z,98644.53
2022-10-10T09:00:59.005Z,98642.69
2022-10-10T09:04:01.144Z,98646.50
2022-10-10T09:07:09.074Z,98638.81
2022-10-10T09:10:13.853Z,98628.94
2022-10-10T09:13:21.441Z,98640.09
2022-10-10T09:16:22.917Z,98640.66
2022-10-10T09:19:39.480Z,98636.63
2022-10-10T09:22:44.557Z,98636.91
2022-10-10T09:25:52.125Z,98635.59
2022-10-10T09:28:58.709Z,98640.63
2022-10-10T09:32:20.320Z,98637.31
2022-10-10T09:35:25.197Z,98642.19
2022-10-10T09:38:37.381Z,98645.31
2022-10-10T09:41:58.464Z,98638.97
2022-10-10T09:45:00.046Z,98640.81
2022-10-10T09:48:01.405Z,98641.63
2022-10-10T09:51:03.493Z,98646.06
2022-10-10T09:54:05.071Z,98641.06
2022-10-10T09:57:06.518Z,98632.56
2022-10-10T10:00:28.191Z,98643.53
2022-10-10T10:03:29.581Z,98641.31
2022-10-10T10:06:30.983Z,98634.09
2022-10-10T10:09:32.331Z,98635.78
2022-10-10T10:12:37.740Z,98636.69
2022-10-10T10:15:39.131Z,98635.22
2022-10-10T10:18:44.703Z,98639.84
2022-10-10T10:21:51.504Z,98630.00
2022-10-10T10:24:52.916Z,98634.16
2022-10-10T10:28:11.457Z,98615.09
2022-10-10T10:31:17.076Z,98618.75
2022-10-10T10:34:24.731Z,98627.56
2022-10-10T10:37:26.062Z,98642.22
2022-10-10T10:40:29.861Z,98638.88
2022-10-10T10:43:31.261Z,98643.28
2022-10-10T10:46:39.279Z,98636.84
2022-10-10T10:49:40.610Z,98643.06
2022-10-10T10:52:44.956Z,98639.38
2022-10-10T10:56:05.202Z,98624.81
2022-10-10T10:59:38.547Z,98623.63
2022-10-10T11:02:59.823Z,98619.44
2022-10-10T11:06:22.687Z,98618.56
2022-10-10T11:09:49.022Z,98626.72
2022-10-10T11:12:57.668Z,98612.59
2022-10-10T11:16:10.061Z,98607.09
2022-10-10T11:19:20.100Z,98615.81
2022-10-10T11:22:21.482Z,98623.28
2022-10-10T11:25:24.363Z,98619.66
2022-10-10T11:28:32.021Z,98614.41
2022-10-10T11:31:34.074Z,98605.41
2022-10-10T11:34:40.372Z,98578.22
2022-10-10T11:37:43.244Z,98626.50
2022-10-10T11:40:52.958Z,98604.50
2022-10-10T11:44:05.730Z,98607.22
2022-10-10T11:47:07.335Z,98622.22
2022-10-10T11:50:13.812Z,98617.19
2022-10-10T11:53:17.577Z,98593.31
2022-10-10T11:56:21.911Z,98594.19
2022-10-10T11:59:35.230Z,98597.03
2022-10-10T12:02:36.957Z,98609.91
2022-10-10T12:05:40.337Z,98584.94
2022-10-10T12:08:46.942Z,98603.97
2022-10-10T12:11:54.321Z,98596.78
2022-10-10T12:14:55.861Z,98595.84
2022-10-10T12:17:57.273Z,98583.41
2022-10-10T12:21:17.813Z,98594.31
2022-10-10T12:24:19.155Z,98595.69
2022-10-10T12:27:27.936Z,98568.56
2022-10-10T12:30:29.380Z,98604.97
2022-10-10T12:33:33.755Z,98598.63
2022-10-10T12:36:41.167Z,98600.03
2022-10-10T12:40:02.843Z,98605.47
2022-10-10T12:43:18.694Z,98609.19
2022-10-10T12:46:27.282Z,98601.56
2022-10-10T12:49:28.727Z,98587.53
2022-10-10T12:52:32.739Z,98596.34
2022-10-10T12:55:43.394Z,98593.44
2022-10-10T12:58:44.796Z,98587.53
2022-10-10T13:01:47.105Z,98595.78
2022-10-10T13:04:48.562Z,98589.00
2022-10-10T13:07:49.961Z,98578.03
2022-10-10T13:11:01.433Z,98584.34
2022-10-10T13:14:03.029Z,98587.78
2022-10-10T13:17:17.865Z,98588.56
2022-10-10T13:20:26.739Z,98582.09
2022-10-10T13:23:28.395Z,98579.75
2022-10-10T13:26:30.406Z,98587.91
2022-10-10T13:29:35.045Z,98589.78
2022-10-10T13:32:37.478Z,98578.50
2022-10-10T13:35:38.804Z,98571.78
2022-10-10T13:38:40.207Z,98567.16
2022-10-10T13:41:43.701Z,98556.97
2022-10-10T13:44:49.048Z,98559.06
2022-10-10T13:47:50.776Z,98557.59
2022-10-10T13:50:56.327Z,98566.88
2022-10-10T13:53:57.723Z,98564.50
2022-10-10T13:57:01.344Z,98558.19
2022-10-10T14:00:04.877Z,98568.50
2022-10-10T14:03:13.485Z,98572.22
2022-10-10T14:06:18.877Z,98575.97
2022-10-10T14:09:22.848Z,98572.63
2022-10-10T14:12:31.650Z,98571.69
2022-10-10T14:15:41.944Z,98601.13
2022-10-10T14:18:43.360Z,98576.31
2022-10-10T14:21:44.874Z,98574.78
2022-10-10T14:24:46.406Z,98571.53
2022-10-10T14:27:47.827Z,98571.09
2022-10-10T14:30:49.154Z,98562.50
2022-10-10T14:33:51.201Z,98570.59
2022-10-10T14:36:52.566Z,98580.03
2022-10-10T14:39:54.006Z,98611.78
2022-10-10T14:42:58.329Z,98607.78
2022-10-10T14:45:59.812Z,98603.66
2022-10-10T14:49:01.194Z,98605.22
2022-10-10T14:52:02.597Z,98607.28
2022-10-10T14:55:04.146Z,98607.88
2022-10-10T14:58:05.517Z,98614.75
2022-10-10T15:01:06.944Z,98619.63
2022-10-10T15:04:08.489Z,98618.50
2022-10-10T15:07:14.688Z,98615.09
2022-10-10T15:10:33.154Z,98615.97
2022-10-10T15:13:35.755Z,98618.91
2022-10-10T15:16:37.217Z,98616.94
2022-10-10T15:19:38.615Z,98612.41
2022-10-10T15:22:40.128Z,98616.66
2022-10-10T15:25:42.028Z,98625.81
2022-10-10T15:28:43.504Z,98629.38
2022-10-10T15:31:44.915Z,98630.75
2022-10-10T15:34:47.820Z,98635.25
2022-10-10T15:37:49.308Z,98636.91
2022-10-10T15:41:00.562Z,98632.03
2022-10-10T15:44:02.304Z,98635.56
2022-10-10T15:47:03.706Z,98633.41
2022-10-10T15:50:05.313Z,98634.84
2022-10-10T15:53:08.734Z,98634.97
2022-10-10T15:56:11.187Z,98622.16
2022-10-10T15:59:13.962Z,98619.16
2022-10-10T16:02:15.703Z,98633.50
2022-10-10T16:05:17.141Z,98639.00
2022-10-10T16:08:18.986Z,98635.22
2022-10-10T16:11:20.769Z,98640.69
2022-10-10T16:14:22.132Z,98640.19
2022-10-10T16:17:23.934Z,98643.41
2022-10-10T16:20:25.428Z,98642.50
2022-10-10T16:23:26.842Z,98657.88
2022-10-10T16:26:29.327Z,98655.88
2022-10-10T16:29:30.684Z,98653.28
2022-10-10T16:32:32.201Z,98655.31
2022-10-10T16:35:37.342Z,98651.72
2022-10-10T16:38:38.829Z,98651.28
2022-10-10T16:41:47.994Z,98657.63
2022-10-10T16:44:49.704Z,98670.56
2022-10-10T16:47:51.200Z,98666.06
2022-10-10T16:50:52.598Z,98667.66
2022-10-10T16:53:54.108Z,98655.59
2022-10-10T16:56:55.449Z,98657.44
2022-10-10T16:59:56.863Z,98648.78
2022-10-10T17:02:58.250Z,98645.69
2022-10-10T17:06:02.873Z,98649.53
2022-10-10T17:09:07.418Z,98650.78
2022-10-10T17:12:08.769Z,98660.66
2022-10-10T17:15:10.194Z,98663.50
2022-10-10T17:18:47.337Z,98661.75
2022-10-10T17:21:48.750Z,98663.63
2022-10-10T17:24:50.101Z,98672.50
2022-10-10T17:27:51.508Z,98674.34
2022-10-10T17:30:52.865Z,98684.16
2022-10-10T17:33:54.962Z,98692.06
2022-10-10T17:36:56.595Z,98698.41
2022-10-10T17:39:57.944Z,98702.78
2022-10-10T17:43:03.827Z,98708.94
2022-10-10T17:46:29.496Z,98706.53
2022-10-10T17:49:28.592Z,98709.19
2022-10-10T17:52:29.986Z,98706.56
2022-10-10T17:55:31.419Z,98707.50
2022-10-10T17:58:32.789Z,98704.03
2022-10-10T18:01:34.973Z,98710.09
2022-10-10T18:04:36.908Z,98712.88
2022-10-10T18:07:38.374Z,98720.75
2022-10-10T18:10:40.146Z,98724.41
2022-10-10T18:13:41.521Z,98732.38
2022-10-10T18:16:44.859Z,98737.53
2022-10-10T18:19:46.287Z,98743.69
2022-10-10T18:22:47.654Z,98747.22
2022-10-10T18:25:49.033Z,98755.22
2022-10-10T18:28:52.481Z,98762.31
2022-10-10T18:31:54.298Z,98759.72
2022-10-10T18:34:55.813Z,98763.22
2022-10-10T18:37:57.829Z,98766.06
2022-10-10T18:41:06.215Z,98764.44
2022-10-10T18:44:08.911Z,98768.91
2022-10-10T18:47:10.340Z,98769.84
2022-10-10T18:50:11.761Z,98780.44
2022-10-10T18:53:13.346Z,98769.97
2022-10-10T18:56:16.613Z,98769.97
2022-10-10T18:59:18.967Z,98772.53
2022-10-10T19:02:20.388Z,98767.47
2022-10-10T19:05:21.711Z,98774.56
2022-10-10T19:08:23.183Z,98780.03
2022-10-10T19:11:28.549Z,98778.25
2022-10-10T19:14:29.992Z,98777.41
2022-10-10T19:17:33.354Z,98789.66
2022-10-10T19:20:34.803Z,98785.38
2022-10-10T19:23:36.272Z,98787.06
2022-10-10T19:26:37.704Z,98784.47
2022-10-10T19:29:39.168Z,98791.47
2022-10-10T19:32:40.710Z,98802.81
2022-10-10T19:35:42.631Z,98805.38
2022-10-10T19:38:44.034Z,98803.72
2022-10-10T19:41:45.461Z,98808.13
2022-10-10T19:44:47.744Z,98808.19
2022-10-10T19:47:49.153Z,98810.84
2022-10-10T19:50:50.660Z,98813.56
2022-10-10T19:53:52.127Z,98819.72
2022-10-10T19:56:53.900Z,98829.44
2022-10-10T19:59:55.268Z,98825.09
2022-10-10T20:02:58.044Z,98838.31
2022-10-10T20:06:00.386Z,98839.25
2022-10-10T20:09:05.105Z,98834.09
2022-10-10T20:12:09.814Z,98837.63
2022-10-10T20:15:11.342Z,98843.88
2022-10-10T20:18:12.709Z,98845.63
2022-10-10T20:21:16.988Z,98843.91
2022-10-10T20:24:18.594Z,98846.53
2022-10-10T20:27:20.154Z,98852.69
2022-10-10T20:30:21.661Z,98852.66
2022-10-10T20:33:23.034Z,98852.69
2022-10-10T20:36:26.509Z,98857.13
2022-10-10T20:39:27.892Z,98854.59
2022-10-10T20:42:29.265Z,98858.13
2022-10-10T20:45:30.661Z,98861.69
2022-10-10T20:48:32.133Z,98860.03
2022-10-10T20:51:33.519Z,98867.06
2022-10-10T20:54:36.430Z,98875.94
2022-10-10T20:57:37.764Z,98875.91
2022-10-10T21:00:42.398Z,98883.81
2022-10-10T21:03:44.044Z,98880.31
2022-10-10T21:06:45.478Z,98879.44
2022-10-10T21:09:46.812Z,98885.66
2022-10-10T21:12:48.189Z,98894.44
2022-10-10T21:15:49.523Z,98891.84
2022-10-10T21:18:57.495Z,98898.00
2022-10-10T21:21:59.513Z,98905.09
2022-10-10T21:25:00.925Z,98903.34
2022-10-10T21:28:02.277Z,98905.97
2022-10-10T21:31:03.714Z,98897.19
2022-10-10T21:34:05.680Z,98905.16
2022-10-10T21:37:07.037Z,98901.63
2022-10-10T21:40:08.671Z,98902.53
2022-10-10T21:43:10.384Z,98901.72
2022-10-10T21:46:18.573Z,98900.06
2022-10-10T21:49:19.939Z,98901.00
2022-10-10T21:52:21.364Z,98905.50
2022-10-10T21:55:22.773Z,98902.97
2022-10-10T21:58:24.409Z,98894.34
2022-10-10T22:01:26.090Z,98897.03
2022-10-10T22:04:29.164Z,98892.69
2022-10-10T22:07:30.677Z,98904.97
2022-10-10T22:10:34.096Z,98905.94
2022-10-10T22:13:35.858Z,98909.56
2022-10-10T22:16:37.575Z,98910.47
2022-10-10T22:19:38.982Z,98911.47
2022-10-10T22:22:41.259Z,98905.41
2022-10-10T22:25:49.734Z,98903.72
2022-10-10T22:28:51.190Z,98909.09
2022-10-10T22:31:52.659Z,98910.00
2022-10-10T22:34:54.106Z,98901.34
2022-10-10T22:37:55.446Z,98905.72
2022-10-10T22:40:56.791Z,98906.66
2022-10-10T22:43:58.187Z,98908.47
2022-10-10T22:46:59.550Z,98908.47
2022-10-10T22:50:00.980Z,98925.06
2022-10-10T22:53:02.381Z,98920.69
2022-10-10T22:56:04.151Z,98919.78
2022-10-10T22:59:05.744Z,98919.78
2022-10-10T23:02:07.080Z,98924.13
2022-10-10T23:05:08.543Z,98922.41
2022-10-10T23:08:09.972Z,98922.41
2022-10-10T23:11:11.457Z,98926.75
2022-10-10T23:14:12.871Z,98922.38
2022-10-10T23:17:14.254Z,98938.09
2022-10-10T23:20:15.673Z,98927.63
2022-10-10T23:23:17.305Z,98939.00
2022-10-10T23:26:18.712Z,98935.50
2022-10-10T23:29:20.105Z,98935.47
2022-10-10T23:32:23.047Z,98926.72
2022-10-10T23:35:24.388Z,98931.97
2022-10-10T23:38:25.794Z,98924.91
2022-10-10T23:41:27.179Z,98927.53
2022-10-10T23:44:28.624Z,98930.13
2022-10-10T23:47:30.036Z,98936.22
2022-10-10T23:50:31.378Z,98930.91
2022-10-10T23:53:34.129Z,98935.28
2022-10-10T23:56:35.520Z,98938.78
2022-10-10T23:59:36.922Z,98933.53
